Pays
Station

 

Conditions  météo  pour  South Lake Tahoe, Lake Tahoe Airport  -  Etats-Unis    Etats-Unis

  
10 °C
    
 
 

METAR pour South Lake Tahoe, Lake Tahoe Airport :

KTVL 180953Z AUTO 00000KT 10SM CLR 10/06 A3022 RMK AO2 SLP175 T01000061

 

Voici le bulletin pour South Lake Tahoe, Lake Tahoe Airport - Etats-Unis.
 
Le bulletin a été fait il y a 11 minutes, à 09:53 UTC .
Le vent était calme.
 
La température était de 10 °C, avec un point de rosée à 6 °C.
La pression atmosphérique était de 1023 hPa.
L'humidité relative était de 76.2%.
 
Le ciel était clair.
 
La visibilité globale était de 16.1 kilomètres.
 

 
 
 

Pays :   A   B   C   D   E   F   G   H   I   J   K   L   M   N   O   P   Q   R   S   T   U   V   W   Y   Z

 

Partenaires :  Info Météo avec Met'info
Météo Marine avec MeteoMarine.net
Infos Site  |  Infos Légales  |  Crédits  |  Confidentialité
Contactez-nous  |  Ajouter aux favoris
© 2013-2019 METAR - Tous droits réservés